Terminal Aerodrome Forecast
Issued by NWS Jacksonville, FL

Home | Current Version | Previous Version | Text Only | Print | Product List | Glossary On
Versions: 1 2 3 4 5 6 7 8 9 10 11 12 13 14 15
000
FTUS42 KJAX 210500
TAFJAX
TAF
KJAX 210534Z 2106/2206 03007KT 6SM BR VCSH OVC006
     FM210900 04005KT 5SM BR VCSH OVC005
     FM211800 05005KT 6SM BR VCSH SCT005 OVC010
     FM212200 04004KT 5SM -RA BR BKN007=

USA.gov is the U.S. government's official web portal to all federal, state and local government web resources and services.